sensor_id;sensor_type;location;lat;lon;timestamp;P1;durP1;ratioP1;P2;durP2;ratioP2
2211;SDS011;48849;48.758;9.158;2023-12-20T00:02:18;2.45;;;2.20;;
2211;SDS011;48849;48.758;9.158;2023-12-20T00:04:45;2.40;;;2.00;;
2211;SDS011;48849;48.758;9.158;2023-12-20T00:07:12;2.00;;;1.90;;
2211;SDS011;48849;48.758;9.158;2023-12-20T00:09:40;2.10;;;2.00;;
2211;SDS011;48849;48.758;9.158;2023-12-20T00:12:07;1.88;;;1.77;;
2211;SDS011;48849;48.758;9.158;2023-12-20T00:14:34;1.80;;;1.70;;
2211;SDS011;48849;48.758;9.158;2023-12-20T00:17:01;2.05;;;1.95;;
2211;SDS011;48849;48.758;9.158;2023-12-20T00:19:28;1.65;;;1.55;;
2211;SDS011;48849;48.758;9.158;2023-12-20T00:21:54;2.42;;;1.70;;
2211;SDS011;48849;48.758;9.158;2023-12-20T00:24:21;1.90;;;1.80;;
2211;SDS011;48849;48.758;9.158;2023-12-20T00:26:49;1.90;;;1.80;;
2211;SDS011;48849;48.758;9.158;2023-12-20T00:29:16;1.75;;;1.60;;
2211;SDS011;48849;48.758;9.158;2023-12-20T00:31:43;1.88;;;1.77;;
2211;SDS011;48849;48.758;9.158;2023-12-20T00:34:10;1.80;;;1.70;;
2211;SDS011;48849;48.758;9.158;2023-12-20T00:36:36;1.92;;;1.80;;
2211;SDS011;48849;48.758;9.158;2023-12-20T00:39:03;1.80;;;1.70;;
2211;SDS011;48849;48.758;9.158;2023-12-20T00:41:31;1.80;;;1.70;;
2211;SDS011;48849;48.758;9.158;2023-12-20T00:44:00;1.50;;;1.40;;
2211;SDS011;48849;48.758;9.158;2023-12-20T00:46:27;2.15;;;1.95;;
2211;SDS011;48849;48.758;9.158;2023-12-20T00:48:53;2.67;;;2.15;;
2211;SDS011;48849;48.758;9.158;2023-12-20T00:51:20;3.63;;;2.83;;
2211;SDS011;48849;48.758;9.158;2023-12-20T00:53:48;2.70;;;2.03;;
2211;SDS011;48849;48.758;9.158;2023-12-20T00:56:15;3.97;;;2.00;;
2211;SDS011;48849;48.758;9.158;2023-12-20T00:58:42;2.53;;;2.33;;
2211;SDS011;48849;48.758;9.158;2023-12-20T01:01:10;2.70;;;2.00;;
2211;SDS011;48849;48.758;9.158;2023-12-20T01:03:38;2.78;;;2.30;;
2211;SDS011;48849;48.758;9.158;2023-12-20T01:06:04;1.75;;;1.65;;
2211;SDS011;48849;48.758;9.158;2023-12-20T01:08:31;2.00;;;1.77;;
2211;SDS011;48849;48.758;9.158;2023-12-20T01:10:59;2.80;;;2.20;;
2211;SDS011;48849;48.758;9.158;2023-12-20T01:13:26;1.70;;;1.60;;
2211;SDS011;48849;48.758;9.158;2023-12-20T01:15:53;1.50;;;1.40;;
2211;SDS011;48849;48.758;9.158;2023-12-20T01:18:22;1.60;;;1.50;;
2211;SDS011;48849;48.758;9.158;2023-12-20T01:20:48;1.88;;;1.67;;
2211;SDS011;48849;48.758;9.158;2023-12-20T01:23:15;1.80;;;1.70;;
2211;SDS011;48849;48.758;9.158;2023-12-20T01:25:42;2.00;;;1.80;;
2211;SDS011;48849;48.758;9.158;2023-12-20T01:28:09;1.60;;;1.50;;
2211;SDS011;48849;48.758;9.158;2023-12-20T01:30:35;2.00;;;1.90;;
2211;SDS011;48849;48.758;9.158;2023-12-20T01:33:02;4.10;;;1.77;;
2211;SDS011;48849;48.758;9.158;2023-12-20T01:35:31;5.78;;;2.08;;
2211;SDS011;48849;48.758;9.158;2023-12-20T01:37:57;1.67;;;1.42;;
2211;SDS011;48849;48.758;9.158;2023-12-20T01:40:24;2.03;;;1.80;;
2211;SDS011;48849;48.758;9.158;2023-12-20T01:42:57;1.52;;;1.42;;
2211;SDS011;48849;48.758;9.158;2023-12-20T01:45:25;6.93;;;1.90;;
2211;SDS011;48849;48.758;9.158;2023-12-20T01:47:51;1.70;;;1.60;;
2211;SDS011;48849;48.758;9.158;2023-12-20T01:50:19;1.25;;;1.25;;
2211;SDS011;48849;48.758;9.158;2023-12-20T01:52:48;1.63;;;1.52;;
2211;SDS011;48849;48.758;9.158;2023-12-20T01:55:17;1.35;;;1.27;;
2211;SDS011;48849;48.758;9.158;2023-12-20T01:57:44;2.00;;;1.48;;
2211;SDS011;48849;48.758;9.158;2023-12-20T02:00:12;1.52;;;1.42;;
2211;SDS011;48849;48.758;9.158;2023-12-20T02:02:40;2.05;;;1.40;;
2211;SDS011;48849;48.758;9.158;2023-12-20T02:05:08;1.75;;;1.65;;
2211;SDS011;48849;48.758;9.158;2023-12-20T02:07:35;1.00;;;1.00;;
2211;SDS011;48849;48.758;9.158;2023-12-20T02:10:04;2.10;;;1.58;;
2211;SDS011;48849;48.758;9.158;2023-12-20T02:12:31;1.77;;;1.67;;
2211;SDS011;48849;48.758;9.158;2023-12-20T02:14:58;1.75;;;1.30;;
2211;SDS011;48849;48.758;9.158;2023-12-20T02:17:25;1.65;;;1.55;;
2211;SDS011;48849;48.758;9.158;2023-12-20T02:19:53;1.63;;;1.42;;
2211;SDS011;48849;48.758;9.158;2023-12-20T02:22:21;1.40;;;1.30;;
2211;SDS011;48849;48.758;9.158;2023-12-20T02:24:48;1.48;;;1.35;;
2211;SDS011;48849;48.758;9.158;2023-12-20T02:27:15;2.33;;;1.80;;
2211;SDS011;48849;48.758;9.158;2023-12-20T02:29:44;1.75;;;1.65;;
2211;SDS011;48849;48.758;9.158;2023-12-20T02:32:13;1.70;;;1.60;;
2211;SDS011;48849;48.758;9.158;2023-12-20T02:34:39;1.33;;;1.25;;
2211;SDS011;48849;48.758;9.158;2023-12-20T02:37:06;1.70;;;1.48;;
2211;SDS011;48849;48.758;9.158;2023-12-20T02:39:34;2.85;;;1.60;;
2211;SDS011;48849;48.758;9.158;2023-12-20T02:42:01;3.03;;;1.80;;
2211;SDS011;48849;48.758;9.158;2023-12-20T02:44:28;1.30;;;1.20;;
2211;SDS011;48849;48.758;9.158;2023-12-20T02:46:55;2.10;;;1.50;;
2211;SDS011;48849;48.758;9.158;2023-12-20T02:49:22;1.60;;;1.40;;
2211;SDS011;48849;48.758;9.158;2023-12-20T02:51:49;1.88;;;1.60;;
2211;SDS011;48849;48.758;9.158;2023-12-20T02:54:15;1.40;;;1.30;;
2211;SDS011;48849;48.758;9.158;2023-12-20T02:56:44;1.20;;;1.20;;
2211;SDS011;48849;48.758;9.158;2023-12-20T02:59:10;1.20;;;1.20;;
2211;SDS011;48849;48.758;9.158;2023-12-20T03:01:41;1.48;;;1.40;;
2211;SDS011;48849;48.758;9.158;2023-12-20T03:04:08;1.30;;;1.20;;
2211;SDS011;48849;48.758;9.158;2023-12-20T03:06:35;3.83;;;1.20;;
2211;SDS011;48849;48.758;9.158;2023-12-20T03:09:02;1.70;;;1.40;;
2211;SDS011;48849;48.758;9.158;2023-12-20T03:11:29;1.13;;;1.08;;
2211;SDS011;48849;48.758;9.158;2023-12-20T03:13:57;1.30;;;1.20;;
2211;SDS011;48849;48.758;9.158;2023-12-20T03:16:24;1.17;;;1.17;;
2211;SDS011;48849;48.758;9.158;2023-12-20T03:18:51;1.25;;;1.15;;
2211;SDS011;48849;48.758;9.158;2023-12-20T03:21:17;1.95;;;1.35;;
2211;SDS011;48849;48.758;9.158;2023-12-20T03:23:44;1.30;;;1.20;;
2211;SDS011;48849;48.758;9.158;2023-12-20T03:26:11;3.78;;;1.27;;
2211;SDS011;48849;48.758;9.158;2023-12-20T03:28:38;1.00;;;1.00;;
2211;SDS011;48849;48.758;9.158;2023-12-20T03:31:06;3.50;;;1.35;;
2211;SDS011;48849;48.758;9.158;2023-12-20T03:33:33;1.45;;;1.35;;
2211;SDS011;48849;48.758;9.158;2023-12-20T03:35:59;1.60;;;1.50;;
2211;SDS011;48849;48.758;9.158;2023-12-20T03:38:26;1.48;;;1.38;;
2211;SDS011;48849;48.758;9.158;2023-12-20T03:40:53;0.90;;;0.90;;
2211;SDS011;48849;48.758;9.158;2023-12-20T03:43:20;0.90;;;0.90;;
2211;SDS011;48849;48.758;9.158;2023-12-20T03:45:46;1.92;;;1.08;;
2211;SDS011;48849;48.758;9.158;2023-12-20T03:48:14;1.30;;;1.00;;
2211;SDS011;48849;48.758;9.158;2023-12-20T03:50:41;4.00;;;1.15;;
2211;SDS011;48849;48.758;9.158;2023-12-20T03:53:08;1.23;;;0.90;;
2211;SDS011;48849;48.758;9.158;2023-12-20T03:55:35;1.23;;;0.90;;
2211;SDS011;48849;48.758;9.158;2023-12-20T03:58:02;0.85;;;0.85;;
2211;SDS011;48849;48.758;9.158;2023-12-20T04:00:28;0.70;;;0.70;;
2211;SDS011;48849;48.758;9.158;2023-12-20T04:02:55;1.00;;;0.80;;
2211;SDS011;48849;48.758;9.158;2023-12-20T04:05:23;0.80;;;0.73;;
2211;SDS011;48849;48.758;9.158;2023-12-20T04:07:50;0.90;;;0.73;;
2211;SDS011;48849;48.758;9.158;2023-12-20T04:10:17;1.70;;;0.50;;
2211;SDS011;48849;48.758;9.158;2023-12-20T04:12:43;1.95;;;1.05;;
2211;SDS011;48849;48.758;9.158;2023-12-20T04:15:10;1.00;;;1.00;;
2211;SDS011;48849;48.758;9.158;2023-12-20T04:17:37;0.90;;;0.90;;
2211;SDS011;48849;48.758;9.158;2023-12-20T04:20:04;4.75;;;0.80;;
2211;SDS011;48849;48.758;9.158;2023-12-20T04:22:33;0.90;;;0.75;;
2211;SDS011;48849;48.758;9.158;2023-12-20T04:25:00;0.98;;;0.70;;
2211;SDS011;48849;48.758;9.158;2023-12-20T04:27:27;0.73;;;0.70;;
2211;SDS011;48849;48.758;9.158;2023-12-20T04:29:53;0.60;;;0.60;;
2211;SDS011;48849;48.758;9.158;2023-12-20T04:32:20;0.80;;;0.60;;
2211;SDS011;48849;48.758;9.158;2023-12-20T04:34:47;0.60;;;0.60;;
2211;SDS011;48849;48.758;9.158;2023-12-20T04:37:14;0.60;;;0.60;;
2211;SDS011;48849;48.758;9.158;2023-12-20T04:39:42;0.70;;;0.70;;
2211;SDS011;48849;48.758;9.158;2023-12-20T04:42:09;0.50;;;0.50;;
2211;SDS011;48849;48.758;9.158;2023-12-20T04:44:35;1.00;;;0.60;;
2211;SDS011;48849;48.758;9.158;2023-12-20T04:47:02;0.50;;;0.50;;
2211;SDS011;48849;48.758;9.158;2023-12-20T04:49:29;0.50;;;0.50;;
2211;SDS011;48849;48.758;9.158;2023-12-20T04:51:56;0.43;;;0.43;;
2211;SDS011;48849;48.758;9.158;2023-12-20T04:54:22;0.50;;;0.50;;
2211;SDS011;48849;48.758;9.158;2023-12-20T04:56:50;0.40;;;0.40;;
2211;SDS011;48849;48.758;9.158;2023-12-20T04:59:17;0.50;;;0.50;;
2211;SDS011;48849;48.758;9.158;2023-12-20T05:01:44;0.50;;;0.50;;
2211;SDS011;48849;48.758;9.158;2023-12-20T05:04:11;0.50;;;0.45;;
2211;SDS011;48849;48.758;9.158;2023-12-20T05:06:37;0.50;;;0.50;;
2211;SDS011;48849;48.758;9.158;2023-12-20T05:09:04;0.75;;;0.75;;
2211;SDS011;48849;48.758;9.158;2023-12-20T05:11:31;0.60;;;0.60;;
2211;SDS011;48849;48.758;9.158;2023-12-20T05:13:59;0.55;;;0.43;;
2211;SDS011;48849;48.758;9.158;2023-12-20T05:16:26;0.40;;;0.40;;
2211;SDS011;48849;48.758;9.158;2023-12-20T05:18:53;0.60;;;0.55;;
2211;SDS011;48849;48.758;9.158;2023-12-20T05:21:19;0.40;;;0.40;;
2211;SDS011;48849;48.758;9.158;2023-12-20T05:23:46;0.60;;;0.60;;
2211;SDS011;48849;48.758;9.158;2023-12-20T05:26:13;0.40;;;0.40;;
2211;SDS011;48849;48.758;9.158;2023-12-20T05:28:39;0.40;;;0.40;;
2211;SDS011;48849;48.758;9.158;2023-12-20T05:31:08;0.70;;;0.57;;
2211;SDS011;48849;48.758;9.158;2023-12-20T05:33:34;0.50;;;0.50;;
2211;SDS011;48849;48.758;9.158;2023-12-20T05:36:01;0.60;;;0.60;;
2211;SDS011;48849;48.758;9.158;2023-12-20T05:38:28;0.50;;;0.50;;
2211;SDS011;48849;48.758;9.158;2023-12-20T05:40:55;0.50;;;0.50;;
2211;SDS011;48849;48.758;9.158;2023-12-20T05:43:21;0.40;;;0.40;;
2211;SDS011;48849;48.758;9.158;2023-12-20T05:45:48;0.52;;;0.50;;
2211;SDS011;48849;48.758;9.158;2023-12-20T05:48:16;1.20;;;0.80;;
2211;SDS011;48849;48.758;9.158;2023-12-20T05:50:43;1.05;;;0.60;;
2211;SDS011;48849;48.758;9.158;2023-12-20T05:53:10;1.63;;;0.95;;
2211;SDS011;48849;48.758;9.158;2023-12-20T05:55:36;0.60;;;0.60;;
2211;SDS011;48849;48.758;9.158;2023-12-20T05:58:03;0.90;;;0.90;;
2211;SDS011;48849;48.758;9.158;2023-12-20T06:00:30;2.10;;;1.17;;
2211;SDS011;48849;48.758;9.158;2023-12-20T06:02:57;2.45;;;0.90;;
2211;SDS011;48849;48.758;9.158;2023-12-20T06:05:25;1.77;;;0.70;;
2211;SDS011;48849;48.758;9.158;2023-12-20T06:07:51;0.68;;;0.68;;
2211;SDS011;48849;48.758;9.158;2023-12-20T06:10:19;2.00;;;0.70;;
2211;SDS011;48849;48.758;9.158;2023-12-20T06:12:47;1.30;;;1.00;;
2211;SDS011;48849;48.758;9.158;2023-12-20T06:15:15;1.95;;;0.77;;
2211;SDS011;48849;48.758;9.158;2023-12-20T06:17:41;2.08;;;1.20;;
2211;SDS011;48849;48.758;9.158;2023-12-20T06:20:09;1.77;;;1.00;;
2211;SDS011;48849;48.758;9.158;2023-12-20T06:22:38;0.80;;;0.80;;
2211;SDS011;48849;48.758;9.158;2023-12-20T06:25:05;0.90;;;0.90;;
2211;SDS011;48849;48.758;9.158;2023-12-20T06:27:32;0.75;;;0.75;;
2211;SDS011;48849;48.758;9.158;2023-12-20T06:29:58;0.70;;;0.70;;
2211;SDS011;48849;48.758;9.158;2023-12-20T06:32:25;0.90;;;0.90;;
2211;SDS011;48849;48.758;9.158;2023-12-20T06:34:54;0.60;;;0.60;;
2211;SDS011;48849;48.758;9.158;2023-12-20T06:37:20;2.92;;;1.00;;
2211;SDS011;48849;48.758;9.158;2023-12-20T06:39:48;0.73;;;0.73;;
2211;SDS011;48849;48.758;9.158;2023-12-20T06:42:15;1.95;;;0.80;;
2211;SDS011;48849;48.758;9.158;2023-12-20T06:44:42;0.70;;;0.70;;
2211;SDS011;48849;48.758;9.158;2023-12-20T06:47:09;0.75;;;0.75;;
2211;SDS011;48849;48.758;9.158;2023-12-20T06:49:35;1.05;;;0.90;;
2211;SDS011;48849;48.758;9.158;2023-12-20T06:52:02;1.63;;;0.70;;
2211;SDS011;48849;48.758;9.158;2023-12-20T06:54:29;1.00;;;0.88;;
2211;SDS011;48849;48.758;9.158;2023-12-20T06:56:57;1.58;;;0.70;;
2211;SDS011;48849;48.758;9.158;2023-12-20T06:59:24;0.80;;;0.70;;
2211;SDS011;48849;48.758;9.158;2023-12-20T07:01:51;2.88;;;1.00;;
2211;SDS011;48849;48.758;9.158;2023-12-20T07:04:18;0.68;;;0.68;;
2211;SDS011;48849;48.758;9.158;2023-12-20T07:06:46;0.82;;;0.82;;
2211;SDS011;48849;48.758;9.158;2023-12-20T07:09:16;0.80;;;0.80;;
2211;SDS011;48849;48.758;9.158;2023-12-20T07:11:43;1.52;;;1.00;;
2211;SDS011;48849;48.758;9.158;2023-12-20T07:14:11;1.83;;;0.85;;
2211;SDS011;48849;48.758;9.158;2023-12-20T07:16:37;1.65;;;0.82;;
2211;SDS011;48849;48.758;9.158;2023-12-20T07:19:04;3.42;;;0.80;;
2211;SDS011;48849;48.758;9.158;2023-12-20T07:21:31;2.67;;;1.15;;
2211;SDS011;48849;48.758;9.158;2023-12-20T07:23:58;0.95;;;0.95;;
2211;SDS011;48849;48.758;9.158;2023-12-20T07:26:24;1.48;;;0.80;;
2211;SDS011;48849;48.758;9.158;2023-12-20T07:28:51;1.50;;;0.80;;
2211;SDS011;48849;48.758;9.158;2023-12-20T07:31:19;2.25;;;0.77;;
2211;SDS011;48849;48.758;9.158;2023-12-20T07:33:46;1.20;;;1.10;;
2211;SDS011;48849;48.758;9.158;2023-12-20T07:36:13;1.58;;;1.05;;
2211;SDS011;48849;48.758;9.158;2023-12-20T07:38:39;1.40;;;1.30;;
2211;SDS011;48849;48.758;9.158;2023-12-20T07:41:08;1.65;;;1.55;;
2211;SDS011;48849;48.758;9.158;2023-12-20T07:43:35;1.30;;;1.20;;
2211;SDS011;48849;48.758;9.158;2023-12-20T07:46:05;1.50;;;1.40;;
2211;SDS011;48849;48.758;9.158;2023-12-20T07:48:33;2.15;;;2.03;;
2211;SDS011;48849;48.758;9.158;2023-12-20T07:51:01;2.22;;;2.10;;
2211;SDS011;48849;48.758;9.158;2023-12-20T07:53:28;2.10;;;2.00;;
2211;SDS011;48849;48.758;9.158;2023-12-20T07:55:55;2.90;;;2.60;;
2211;SDS011;48849;48.758;9.158;2023-12-20T07:58:21;3.35;;;3.10;;
2211;SDS011;48849;48.758;9.158;2023-12-20T08:00:48;2.80;;;2.60;;
2211;SDS011;48849;48.758;9.158;2023-12-20T08:03:15;3.13;;;2.80;;
2211;SDS011;48849;48.758;9.158;2023-12-20T08:05:43;3.53;;;2.90;;
2211;SDS011;48849;48.758;9.158;2023-12-20T08:08:10;2.97;;;2.58;;
2211;SDS011;48849;48.758;9.158;2023-12-20T08:10:36;3.42;;;3.13;;
2211;SDS011;48849;48.758;9.158;2023-12-20T08:13:03;2.83;;;2.60;;
2211;SDS011;48849;48.758;9.158;2023-12-20T08:15:30;3.20;;;2.90;;
2211;SDS011;48849;48.758;9.158;2023-12-20T08:17:57;3.38;;;3.10;;
2211;SDS011;48849;48.758;9.158;2023-12-20T08:20:23;3.25;;;2.95;;
2211;SDS011;48849;48.758;9.158;2023-12-20T08:22:51;3.30;;;2.80;;
2211;SDS011;48849;48.758;9.158;2023-12-20T08:25:18;2.85;;;2.63;;
2211;SDS011;48849;48.758;9.158;2023-12-20T08:27:45;2.58;;;2.40;;
2211;SDS011;48849;48.758;9.158;2023-12-20T08:30:11;3.67;;;2.88;;
2211;SDS011;48849;48.758;9.158;2023-12-20T08:32:38;3.30;;;3.00;;
2211;SDS011;48849;48.758;9.158;2023-12-20T08:35:05;3.22;;;3.00;;
2211;SDS011;48849;48.758;9.158;2023-12-20T08:37:32;3.40;;;3.17;;
2211;SDS011;48849;48.758;9.158;2023-12-20T08:40:00;3.42;;;3.13;;
2211;SDS011;48849;48.758;9.158;2023-12-20T08:42:27;3.90;;;3.58;;
2211;SDS011;48849;48.758;9.158;2023-12-20T08:44:56;4.88;;;3.90;;
2211;SDS011;48849;48.758;9.158;2023-12-20T08:47:23;4.53;;;4.13;;
2211;SDS011;48849;48.758;9.158;2023-12-20T08:49:50;3.90;;;3.60;;
2211;SDS011;48849;48.758;9.158;2023-12-20T08:52:21;4.07;;;3.55;;
2211;SDS011;48849;48.758;9.158;2023-12-20T08:54:48;4.65;;;3.28;;
2211;SDS011;48849;48.758;9.158;2023-12-20T08:57:18;3.85;;;3.42;;
2211;SDS011;48849;48.758;9.158;2023-12-20T08:59:46;8.02;;;5.22;;
2211;SDS011;48849;48.758;9.158;2023-12-20T09:02:13;4.68;;;3.80;;
2211;SDS011;48849;48.758;9.158;2023-12-20T09:04:40;3.90;;;3.50;;
2211;SDS011;48849;48.758;9.158;2023-12-20T09:07:07;3.95;;;3.55;;
2211;SDS011;48849;48.758;9.158;2023-12-20T09:09:46;3.78;;;3.30;;
2211;SDS011;48849;48.758;9.158;2023-12-20T09:12:13;3.40;;;3.10;;
2211;SDS011;48849;48.758;9.158;2023-12-20T09:14:41;3.28;;;3.00;;
2211;SDS011;48849;48.758;9.158;2023-12-20T09:17:08;3.72;;;3.30;;
2211;SDS011;48849;48.758;9.158;2023-12-20T09:19:36;3.50;;;3.15;;
2211;SDS011;48849;48.758;9.158;2023-12-20T09:22:03;5.95;;;3.20;;
2211;SDS011;48849;48.758;9.158;2023-12-20T09:24:30;2.97;;;2.78;;
2211;SDS011;48849;48.758;9.158;2023-12-20T09:26:57;5.05;;;3.47;;
2211;SDS011;48849;48.758;9.158;2023-12-20T09:29:23;4.45;;;3.10;;
2211;SDS011;48849;48.758;9.158;2023-12-20T09:31:51;3.83;;;3.42;;
2211;SDS011;48849;48.758;9.158;2023-12-20T09:34:18;8.43;;;3.20;;
2211;SDS011;48849;48.758;9.158;2023-12-20T09:36:46;4.50;;;3.10;;
2211;SDS011;48849;48.758;9.158;2023-12-20T09:39:13;4.30;;;2.92;;
2211;SDS011;48849;48.758;9.158;2023-12-20T09:41:41;3.03;;;2.60;;
2211;SDS011;48849;48.758;9.158;2023-12-20T09:44:10;3.25;;;2.95;;
2211;SDS011;48849;48.758;9.158;2023-12-20T09:46:39;5.25;;;3.30;;
2211;SDS011;48849;48.758;9.158;2023-12-20T09:49:11;4.72;;;3.00;;
2211;SDS011;48849;48.758;9.158;2023-12-20T09:51:39;4.07;;;1.92;;
2211;SDS011;48849;48.758;9.158;2023-12-20T09:54:06;5.78;;;2.92;;
2211;SDS011;48849;48.758;9.158;2023-12-20T09:56:33;2.60;;;2.40;;
2211;SDS011;48849;48.758;9.158;2023-12-20T09:59:00;1.83;;;1.73;;
2211;SDS011;48849;48.758;9.158;2023-12-20T10:01:27;8.48;;;3.10;;
2211;SDS011;48849;48.758;9.158;2023-12-20T10:03:54;20.58;;;7.40;;
2211;SDS011;48849;48.758;9.158;2023-12-20T10:06:22;8.40;;;3.67;;
2211;SDS011;48849;48.758;9.158;2023-12-20T10:08:49;9.93;;;2.70;;
2211;SDS011;48849;48.758;9.158;2023-12-20T10:11:16;4.22;;;2.28;;
2211;SDS011;48849;48.758;9.158;2023-12-20T10:13:43;6.78;;;1.92;;
2211;SDS011;48849;48.758;9.158;2023-12-20T10:16:09;5.53;;;2.00;;
2211;SDS011;48849;48.758;9.158;2023-12-20T10:18:36;2.60;;;1.70;;
2211;SDS011;48849;48.758;9.158;2023-12-20T10:21:03;4.70;;;1.98;;
2211;SDS011;48849;48.758;9.158;2023-12-20T10:23:32;5.45;;;1.70;;
2211;SDS011;48849;48.758;9.158;2023-12-20T10:25:59;6.40;;;1.67;;
2211;SDS011;48849;48.758;9.158;2023-12-20T10:28:26;2.88;;;2.10;;
2211;SDS011;48849;48.758;9.158;2023-12-20T10:30:59;3.13;;;1.65;;
2211;SDS011;48849;48.758;9.158;2023-12-20T10:33:26;5.22;;;1.88;;
2211;SDS011;48849;48.758;9.158;2023-12-20T10:35:54;9.20;;;2.10;;
2211;SDS011;48849;48.758;9.158;2023-12-20T10:38:21;6.25;;;2.05;;
2211;SDS011;48849;48.758;9.158;2023-12-20T10:40:50;3.40;;;1.80;;
2211;SDS011;48849;48.758;9.158;2023-12-20T10:43:20;2.63;;;1.70;;
2211;SDS011;48849;48.758;9.158;2023-12-20T10:45:48;2.85;;;1.65;;
2211;SDS011;48849;48.758;9.158;2023-12-20T10:48:15;4.20;;;1.63;;
2211;SDS011;48849;48.758;9.158;2023-12-20T10:50:42;9.73;;;3.05;;
2211;SDS011;48849;48.758;9.158;2023-12-20T10:53:10;4.63;;;2.55;;
2211;SDS011;48849;48.758;9.158;2023-12-20T10:55:37;6.55;;;2.63;;
2211;SDS011;48849;48.758;9.158;2023-12-20T10:58:06;5.75;;;2.42;;
2211;SDS011;48849;48.758;9.158;2023-12-20T11:00:35;4.97;;;2.17;;
2211;SDS011;48849;48.758;9.158;2023-12-20T11:03:06;2.67;;;1.52;;
2211;SDS011;48849;48.758;9.158;2023-12-20T11:05:36;7.35;;;2.60;;
2211;SDS011;48849;48.758;9.158;2023-12-20T11:08:09;6.97;;;2.40;;
2211;SDS011;48849;48.758;9.158;2023-12-20T11:10:40;3.08;;;1.83;;
2211;SDS011;48849;48.758;9.158;2023-12-20T11:13:17;8.82;;;1.60;;
2211;SDS011;48849;48.758;9.158;2023-12-20T11:15:48;3.33;;;2.33;;
2211;SDS011;48849;48.758;9.158;2023-12-20T11:18:15;3.05;;;1.65;;
2211;SDS011;48849;48.758;9.158;2023-12-20T11:20:42;5.95;;;1.90;;
2211;SDS011;48849;48.758;9.158;2023-12-20T11:23:09;3.28;;;1.60;;
2211;SDS011;48849;48.758;9.158;2023-12-20T11:25:48;6.65;;;2.67;;
2211;SDS011;48849;48.758;9.158;2023-12-20T11:28:22;4.07;;;1.65;;
2211;SDS011;48849;48.758;9.158;2023-12-20T11:30:50;2.78;;;1.70;;
2211;SDS011;48849;48.758;9.158;2023-12-20T11:33:21;3.58;;;1.90;;
2211;SDS011;48849;48.758;9.158;2023-12-20T11:35:49;3.83;;;1.70;;
2211;SDS011;48849;48.758;9.158;2023-12-20T11:38:15;5.20;;;2.10;;
2211;SDS011;48849;48.758;9.158;2023-12-20T11:40:42;2.90;;;1.52;;
2211;SDS011;48849;48.758;9.158;2023-12-20T11:43:10;6.68;;;1.95;;
2211;SDS011;48849;48.758;9.158;2023-12-20T11:45:38;2.08;;;1.60;;
2211;SDS011;48849;48.758;9.158;2023-12-20T11:48:15;6.97;;;1.85;;
2211;SDS011;48849;48.758;9.158;2023-12-20T11:50:42;8.13;;;1.90;;
2211;SDS011;48849;48.758;9.158;2023-12-20T11:53:10;4.13;;;1.80;;
2211;SDS011;48849;48.758;9.158;2023-12-20T11:55:37;5.18;;;1.60;;
2211;SDS011;48849;48.758;9.158;2023-12-20T11:58:04;5.70;;;1.90;;
2211;SDS011;48849;48.758;9.158;2023-12-20T12:00:31;3.55;;;1.52;;
2211;SDS011;48849;48.758;9.158;2023-12-20T12:02:59;7.55;;;1.80;;
2211;SDS011;48849;48.758;9.158;2023-12-20T12:05:27;2.20;;;1.55;;
2211;SDS011;48849;48.758;9.158;2023-12-20T12:07:56;4.05;;;2.10;;
2211;SDS011;48849;48.758;9.158;2023-12-20T12:10:23;3.50;;;1.65;;
2211;SDS011;48849;48.758;9.158;2023-12-20T12:12:49;7.18;;;1.92;;
2211;SDS011;48849;48.758;9.158;2023-12-20T12:15:16;4.30;;;1.50;;
2211;SDS011;48849;48.758;9.158;2023-12-20T12:17:43;5.50;;;2.03;;
2211;SDS011;48849;48.758;9.158;2023-12-20T12:20:11;2.70;;;1.65;;
2211;SDS011;48849;48.758;9.158;2023-12-20T12:22:38;3.10;;;1.77;;
2211;SDS011;48849;48.758;9.158;2023-12-20T12:25:11;2.78;;;1.70;;
2211;SDS011;48849;48.758;9.158;2023-12-20T12:27:39;4.07;;;1.88;;
2211;SDS011;48849;48.758;9.158;2023-12-20T12:30:07;4.38;;;1.77;;
2211;SDS011;48849;48.758;9.158;2023-12-20T12:32:37;4.55;;;1.65;;
2211;SDS011;48849;48.758;9.158;2023-12-20T12:35:04;3.00;;;1.80;;
2211;SDS011;48849;48.758;9.158;2023-12-20T12:37:35;2.92;;;1.52;;
2211;SDS011;48849;48.758;9.158;2023-12-20T12:40:04;3.05;;;1.85;;
2211;SDS011;48849;48.758;9.158;2023-12-20T12:42:31;5.20;;;2.10;;
2211;SDS011;48849;48.758;9.158;2023-12-20T12:44:58;4.75;;;1.95;;
2211;SDS011;48849;48.758;9.158;2023-12-20T12:47:25;2.88;;;1.98;;
2211;SDS011;48849;48.758;9.158;2023-12-20T12:49:51;3.85;;;1.80;;
2211;SDS011;48849;48.758;9.158;2023-12-20T12:52:19;2.58;;;1.63;;
2211;SDS011;48849;48.758;9.158;2023-12-20T12:54:47;6.30;;;2.15;;
2211;SDS011;48849;48.758;9.158;2023-12-20T12:57:14;10.40;;;4.22;;
2211;SDS011;48849;48.758;9.158;2023-12-20T12:59:42;3.90;;;2.40;;
2211;SDS011;48849;48.758;9.158;2023-12-20T13:02:10;5.88;;;2.08;;
2211;SDS011;48849;48.758;9.158;2023-12-20T13:04:38;2.85;;;1.80;;
2211;SDS011;48849;48.758;9.158;2023-12-20T13:07:04;7.15;;;2.22;;
2211;SDS011;48849;48.758;9.158;2023-12-20T13:09:32;3.92;;;1.85;;
2211;SDS011;48849;48.758;9.158;2023-12-20T13:12:00;2.28;;;1.70;;
2211;SDS011;48849;48.758;9.158;2023-12-20T13:14:28;1.90;;;1.63;;
2211;SDS011;48849;48.758;9.158;2023-12-20T13:16:55;3.97;;;2.10;;
2211;SDS011;48849;48.758;9.158;2023-12-20T13:19:22;2.83;;;1.63;;
2211;SDS011;48849;48.758;9.158;2023-12-20T13:21:48;4.00;;;1.50;;
2211;SDS011;48849;48.758;9.158;2023-12-20T13:24:15;3.10;;;1.80;;
2211;SDS011;48849;48.758;9.158;2023-12-20T13:26:42;3.47;;;1.90;;
2211;SDS011;48849;48.758;9.158;2023-12-20T13:29:10;6.88;;;2.20;;
2211;SDS011;48849;48.758;9.158;2023-12-20T13:31:37;3.10;;;1.58;;
2211;SDS011;48849;48.758;9.158;2023-12-20T13:34:06;4.75;;;1.30;;
2211;SDS011;48849;48.758;9.158;2023-12-20T13:36:32;6.55;;;1.73;;
2211;SDS011;48849;48.758;9.158;2023-12-20T13:38:59;7.18;;;1.95;;
2211;SDS011;48849;48.758;9.158;2023-12-20T13:41:28;4.25;;;2.08;;
2211;SDS011;48849;48.758;9.158;2023-12-20T13:43:55;4.57;;;1.88;;
2211;SDS011;48849;48.758;9.158;2023-12-20T13:46:23;3.67;;;1.60;;
2211;SDS011;48849;48.758;9.158;2023-12-20T13:48:50;5.18;;;1.90;;
2211;SDS011;48849;48.758;9.158;2023-12-20T13:51:16;8.60;;;2.05;;
2211;SDS011;48849;48.758;9.158;2023-12-20T13:53:43;4.85;;;1.80;;
2211;SDS011;48849;48.758;9.158;2023-12-20T13:56:10;3.17;;;1.90;;
2211;SDS011;48849;48.758;9.158;2023-12-20T13:58:36;2.63;;;1.50;;
2211;SDS011;48849;48.758;9.158;2023-12-20T14:01:04;4.85;;;1.90;;
2211;SDS011;48849;48.758;9.158;2023-12-20T14:03:33;4.00;;;1.50;;
2211;SDS011;48849;48.758;9.158;2023-12-20T14:06:00;3.05;;;1.83;;
2211;SDS011;48849;48.758;9.158;2023-12-20T14:08:27;3.65;;;1.83;;
2211;SDS011;48849;48.758;9.158;2023-12-20T14:10:54;3.55;;;1.73;;
2211;SDS011;48849;48.758;9.158;2023-12-20T14:13:21;5.20;;;2.97;;
2211;SDS011;48849;48.758;9.158;2023-12-20T14:15:47;2.65;;;2.15;;
2211;SDS011;48849;48.758;9.158;2023-12-20T14:18:14;4.43;;;1.52;;
2211;SDS011;48849;48.758;9.158;2023-12-20T14:20:43;4.80;;;1.90;;
2211;SDS011;48849;48.758;9.158;2023-12-20T14:23:12;6.65;;;1.60;;
2211;SDS011;48849;48.758;9.158;2023-12-20T14:25:39;4.32;;;1.52;;
2211;SDS011;48849;48.758;9.158;2023-12-20T14:28:06;3.15;;;1.60;;
2211;SDS011;48849;48.758;9.158;2023-12-20T14:30:35;4.10;;;1.60;;
2211;SDS011;48849;48.758;9.158;2023-12-20T14:33:03;2.78;;;1.27;;
2211;SDS011;48849;48.758;9.158;2023-12-20T14:35:30;3.42;;;1.75;;
2211;SDS011;48849;48.758;9.158;2023-12-20T14:37:59;5.15;;;1.75;;
2211;SDS011;48849;48.758;9.158;2023-12-20T14:40:26;6.35;;;1.58;;
2211;SDS011;48849;48.758;9.158;2023-12-20T14:42:52;7.80;;;2.50;;
2211;SDS011;48849;48.758;9.158;2023-12-20T14:45:19;10.38;;;4.25;;
2211;SDS011;48849;48.758;9.158;2023-12-20T14:47:46;5.47;;;2.92;;
2211;SDS011;48849;48.758;9.158;2023-12-20T14:50:14;4.70;;;2.22;;
2211;SDS011;48849;48.758;9.158;2023-12-20T14:52:43;4.93;;;2.03;;
2211;SDS011;48849;48.758;9.158;2023-12-20T14:55:11;4.10;;;1.33;;
2211;SDS011;48849;48.758;9.158;2023-12-20T14:57:38;7.57;;;2.22;;
2211;SDS011;48849;48.758;9.158;2023-12-20T15:00:05;3.28;;;1.70;;
2211;SDS011;48849;48.758;9.158;2023-12-20T15:02:33;2.95;;;1.50;;